Time;durP1;ratioP1;P1;durP2;ratioP2;P2;SDS_P1;SDS_P2;PMS_P1;PMS_P2;Temp;Humidity;BMP_temperature;BMP_pressure;BME280_temperature;BME280_humidity;BME280_pressure;Samples;Min_cycle;Max_cycle;Signal;HPM_P1;HPM_P2
2022/12/19 00:01:25;;;;;;;66.88;19.23;;;-2.30;99.90;;;;;;5008237;28;20109;-65
2022/12/19 00:03:56;;;;;;;66.95;18.08;;;-2.30;99.90;;;;;;5008128;28;20029;-65
2022/12/19 00:06:22;;;;;;;61.55;18.80;;;-2.20;99.90;;;;;;5007745;28;20042;-65
2022/12/19 00:08:50;;;;;;;67.60;17.60;;;-2.30;99.90;;;;;;5000913;28;20042;-65
2022/12/19 00:11:18;;;;;;;59.83;16.73;;;-2.20;99.90;;;;;;4989445;28;20089;-64
2022/12/19 00:13:44;;;;;;;58.47;16.15;;;-2.20;99.90;;;;;;4996535;28;20084;-65
2022/12/19 00:16:13;;;;;;;58.92;18.08;;;-2.20;99.90;;;;;;5007963;28;20037;-64
2022/12/19 00:18:43;;;;;;;58.42;17.90;;;-2.10;99.90;;;;;;5008041;28;20138;-65
2022/12/19 00:21:11;;;;;;;59.03;16.25;;;-2.10;99.90;;;;;;5007959;28;20119;-65
2022/12/19 00:23:36;;;;;;;66.60;18.70;;;-2.10;99.90;;;;;;5007161;28;20123;-65
2022/12/19 00:26:14;;;;;;;53.47;16.77;;;-2.10;99.90;;;;;;5007168;28;20041;-64
2022/12/19 00:28:42;;;;;;;54.97;16.92;;;-2.00;99.90;;;;;;5015888;28;20034;-65
2022/12/19 00:31:12;;;;;;;55.00;17.45;;;-2.00;99.90;;;;;;5016155;28;20475;-64
2022/12/19 00:33:38;;;;;;;56.35;16.80;;;-2.00;99.90;;;;;;5021461;28;20069;-65
2022/12/19 00:36:06;;;;;;;64.45;18.42;;;-2.00;99.90;;;;;;5008093;28;21003;-65
2022/12/19 00:38:32;;;;;;;58.78;17.20;;;-2.00;99.90;;;;;;5031184;28;20104;-65
2022/12/19 00:41:16;;;;;;;57.88;16.88;;;-2.00;99.90;;;;;;5021787;28;20060;-65
2022/12/19 00:43:42;;;;;;;56.47;16.38;;;-2.00;99.90;;;;;;5011032;28;20040;-65
2022/12/19 00:46:11;;;;;;;62.28;18.08;;;-1.90;99.90;;;;;;5010931;28;20040;-64
2022/12/19 00:48:37;;;;;;;59.33;17.75;;;-2.00;99.90;;;;;;5010468;28;20037;-63
2022/12/19 00:51:05;;;;;;;52.17;15.60;;;-2.00;99.90;;;;;;4995032;28;20038;-65
2022/12/19 00:53:31;;;;;;;56.25;17.05;;;-2.00;99.90;;;;;;4997727;28;20368;-64
2022/12/19 00:56:04;;;;;;;60.20;18.85;;;-1.90;99.90;;;;;;5010124;28;20106;-65
2022/12/19 00:58:30;;;;;;;51.10;16.42;;;-2.00;99.90;;;;;;5012275;28;20084;-64
2022/12/19 01:00:56;;;;;;;54.33;15.82;;;-1.90;99.90;;;;;;5009778;28;20354;-64
2022/12/19 01:03:22;;;;;;;55.95;16.85;;;-2.00;99.90;;;;;;5010512;28;20069;-64
2022/12/19 01:05:50;;;;;;;60.22;17.75;;;-1.90;99.90;;;;;;5009457;28;20097;-64
2022/12/19 01:08:19;;;;;;;59.80;17.63;;;-1.90;99.90;;;;;;5011803;28;20030;-64
2022/12/19 01:10:46;;;;;;;63.47;17.42;;;-1.90;99.90;;;;;;5010298;28;20034;-64
2022/12/19 01:13:12;;;;;;;55.80;17.90;;;-1.90;99.90;;;;;;5010733;28;20069;-64
2022/12/19 01:15:42;;;;;;;54.83;16.63;;;-2.00;99.90;;;;;;4998040;28;20073;-62
2022/12/19 01:18:09;;;;;;;58.10;17.13;;;-1.90;99.90;;;;;;5002652;28;20029;-64
2022/12/19 01:20:41;;;;;;;52.75;17.15;;;-1.90;99.90;;;;;;5031229;28;20108;-65
2022/12/19 01:23:09;;;;;;;52.25;16.27;;;-1.90;99.90;;;;;;5020219;28;20061;-64
2022/12/19 01:25:36;;;;;;;54.05;16.20;;;-1.90;99.90;;;;;;5011319;28;20038;-65
2022/12/19 01:28:03;;;;;;;54.85;16.90;;;-1.80;99.90;;;;;;5003761;28;20026;-64
2022/12/19 01:30:29;;;;;;;54.58;17.60;;;-1.80;99.90;;;;;;4991790;28;20049;-64
2022/12/19 01:32:56;;;;;;;54.30;16.52;;;-1.80;99.90;;;;;;4994583;28;20033;-64
2022/12/19 01:35:22;;;;;;;55.90;16.27;;;-1.80;99.90;;;;;;5009612;28;20129;-64
2022/12/19 01:37:51;;;;;;;54.28;17.42;;;-1.80;99.90;;;;;;5008649;28;20132;-64
2022/12/19 01:40:18;;;;;;;65.45;18.10;;;-1.80;99.90;;;;;;5011021;28;20030;-65
2022/12/19 01:42:44;;;;;;;57.17;18.38;;;-1.80;99.90;;;;;;5010189;28;20455;-65
2022/12/19 01:45:09;;;;;;;55.58;17.10;;;-1.70;99.90;;;;;;5009714;28;20073;-64
2022/12/19 01:47:43;;;;;;;62.42;18.00;;;-1.70;99.90;;;;;;5011695;28;20028;-64
2022/12/19 01:50:16;;;;;;;58.10;18.52;;;-1.70;99.90;;;;;;5028160;28;20052;-64
2022/12/19 01:52:42;;;;;;;56.38;17.63;;;-1.80;99.90;;;;;;5001109;28;20065;-65
2022/12/19 01:55:09;;;;;;;52.05;15.77;;;-1.70;99.90;;;;;;5003031;28;20083;-64
2022/12/19 01:57:37;;;;;;;56.67;15.90;;;-1.70;99.90;;;;;;5008553;28;20044;-64
2022/12/19 02:00:08;;;;;;;61.00;18.20;;;-1.70;99.90;;;;;;4997912;28;20125;-64
2022/12/19 02:02:53;;;;;;;59.35;18.70;;;-1.70;99.90;;;;;;4990913;28;20081;-64
2022/12/19 02:05:19;;;;;;;51.60;17.35;;;-1.70;99.90;;;;;;4998250;28;20046;-64
2022/12/19 02:07:45;;;;;;;52.08;16.77;;;-1.70;99.90;;;;;;5008910;28;20428;-65
2022/12/19 02:10:11;;;;;;;59.17;19.67;;;-1.70;99.90;;;;;;5002966;28;20046;-63
2022/12/19 02:12:40;;;;;;;62.17;18.52;;;-1.80;99.90;;;;;;4991534;28;20088;-64
2022/12/19 02:15:07;;;;;;;69.95;19.35;;;-1.80;99.90;;;;;;5003529;28;20486;-63
2022/12/19 02:17:56;;;;;;;66.03;18.00;;;-1.80;99.90;;;;;;5010309;28;20479;-64
2022/12/19 02:20:49;;;;;;;62.42;19.15;;;-1.80;99.90;;;;;;5008365;28;20022;-65
2022/12/19 02:23:27;;;;;;;61.47;18.20;;;-1.80;99.90;;;;;;5012195;28;20092;-66
2022/12/19 02:26:31;;;;;;;70.40;19.92;;;-1.80;99.90;;;;;;5008652;28;20061;-63
2022/12/19 02:29:23;;;;;;;69.07;19.25;;;-1.70;99.90;;;;;;4992204;28;20108;-65
2022/12/19 02:31:56;;;;;;;61.50;17.77;;;-1.70;99.90;;;;;;4999312;28;20117;-65
2022/12/19 02:34:28;;;;;;;61.80;18.95;;;-1.80;99.90;;;;;;5002339;28;20379;-64
2022/12/19 02:37:20;;;;;;;60.35;18.10;;;-1.70;99.90;;;;;;4992783;28;20056;-64
2022/12/19 02:40:04;;;;;;;62.10;19.40;;;-1.70;99.90;;;;;;5005978;28;20513;-65
2022/12/19 02:42:38;;;;;;;61.28;18.30;;;-1.70;99.90;;;;;;5002493;28;20037;-65
2022/12/19 02:45:06;;;;;;;65.90;19.70;;;-1.70;99.90;;;;;;4991098;28;20026;-64
2022/12/19 02:47:34;;;;;;;66.80;21.30;;;-1.70;99.90;;;;;;5007353;28;20025;-64
2022/12/19 02:50:01;;;;;;;61.97;18.27;;;-1.70;99.90;;;;;;5008095;28;20442;-65
2022/12/19 02:52:27;;;;;;;64.45;19.27;;;-1.70;99.90;;;;;;5006617;28;20426;-64
2022/12/19 02:54:56;;;;;;;61.78;18.92;;;-1.70;99.90;;;;;;5003230;28;20038;-64
2022/12/19 02:57:32;;;;;;;59.67;18.25;;;-1.70;99.90;;;;;;4997630;28;20073;-63
2022/12/19 03:00:08;;;;;;;62.58;19.65;;;-1.60;99.90;;;;;;5008704;28;20080;-65
2022/12/19 03:02:50;;;;;;;59.65;17.85;;;-1.50;99.90;;;;;;4996447;28;20049;-65
2022/12/19 03:05:42;;;;;;;58.90;17.90;;;-1.60;99.90;;;;;;4996126;28;20049;-65
2022/12/19 03:08:16;;;;;;;64.85;18.58;;;-1.50;99.90;;;;;;5004221;28;20077;-65
2022/12/19 03:11:01;;;;;;;72.20;20.25;;;-1.50;99.90;;;;;;5004396;28;20481;-65
2022/12/19 03:13:29;;;;;;;65.95;17.88;;;-1.50;99.90;;;;;;4998788;28;20033;-65
2022/12/19 03:15:56;;;;;;;60.47;18.50;;;-1.50;99.90;;;;;;5008491;28;20045;-64
2022/12/19 03:18:23;;;;;;;64.93;19.50;;;-1.40;99.90;;;;;;5009173;28;20033;-64
2022/12/19 03:20:55;;;;;;;58.58;18.40;;;-1.40;99.90;;;;;;5012828;28;20095;-65
2022/12/19 03:23:21;;;;;;;74.53;19.40;;;-1.40;99.90;;;;;;5014993;28;20499;-64
2022/12/19 03:25:51;;;;;;;62.70;18.55;;;-1.30;99.90;;;;;;5011436;28;20029;-64
2022/12/19 03:28:37;;;;;;;63.13;18.90;;;-1.30;99.90;;;;;;5013586;28;20025;-64
2022/12/19 03:31:05;;;;;;;55.80;16.88;;;-1.30;99.90;;;;;;4989158;28;20085;-64
2022/12/19 03:33:33;;;;;;;59.08;17.75;;;-1.30;99.90;;;;;;5003391;28;20072;-64
2022/12/19 03:36:03;;;;;;;63.83;19.20;;;-1.30;99.90;;;;;;4993987;28;20069;-64
2022/12/19 03:38:29;;;;;;;;;;;-1.30;99.90;;;;;;4992951;28;20085;-64
2022/12/19 03:40:56;;;;;;;70.68;17.38;;;-1.30;99.90;;;;;;4995351;28;19913;-64
2022/12/19 03:43:22;;;;;;;70.38;20.85;;;-1.30;99.90;;;;;;4989338;28;20129;-64
2022/12/19 03:46:03;;;;;;;73.03;21.02;;;-1.30;99.90;;;;;;4992663;28;20117;-65
2022/12/19 03:48:46;;;;;;;70.35;20.75;;;-1.30;99.90;;;;;;5007086;28;20858;-64
2022/12/19 03:51:21;;;;;;;68.32;21.15;;;-1.30;99.90;;;;;;5022575;28;20120;-64
2022/12/19 03:54:09;;;;;;;70.32;21.13;;;-1.40;99.90;;;;;;5003694;28;20475;-64
2022/12/19 03:57:02;;;;;;;71.13;20.52;;;-1.40;99.90;;;;;;4998210;28;20403;-65
2022/12/19 03:59:41;;;;;;;62.72;19.20;;;-1.40;99.90;;;;;;5006838;28;20029;-65
2022/12/19 04:02:08;;;;;;;68.30;20.83;;;-1.40;99.90;;;;;;5022551;28;20036;-67
2022/12/19 04:04:41;;;;;;;70.05;19.00;;;-1.30;99.90;;;;;;5028272;28;20065;-65
2022/12/19 04:07:08;;;;;;;68.63;19.63;;;-1.30;99.90;;;;;;5028101;28;20052;-64
2022/12/19 04:09:38;;;;;;;67.90;20.10;;;-1.30;99.90;;;;;;5009667;28;20037;-64
2022/12/19 04:12:08;;;;;;;66.70;18.48;;;-1.20;99.90;;;;;;5015292;28;20021;-66
2022/12/19 04:14:36;;;;;;;68.78;20.15;;;-1.20;99.90;;;;;;5021013;28;20029;-64
2022/12/19 04:17:29;;;;;;;67.90;19.45;;;-1.20;99.90;;;;;;5023225;28;20045;-65
2022/12/19 04:20:11;;;;;;;62.60;18.15;;;-1.10;99.90;;;;;;5031382;28;20053;-66
2022/12/19 04:22:47;;;;;;;73.05;20.13;;;-1.10;99.90;;;;;;5024600;28;20049;-65
2022/12/19 04:25:17;;;;;;;68.72;20.20;;;-1.10;99.90;;;;;;5003455;28;20058;-64
2022/12/19 04:27:49;;;;;;;69.22;20.52;;;-1.10;99.90;;;;;;5010104;28;20463;-65
2022/12/19 04:30:17;;;;;;;68.53;21.02;;;-1.10;99.90;;;;;;5006188;28;20018;-65
2022/12/19 04:32:47;;;;;;;68.93;20.98;;;-1.10;99.90;;;;;;5005574;28;20064;-64
2022/12/19 04:35:13;;;;;;;55.22;16.42;;;-1.10;99.90;;;;;;4994604;28;20031;-64
2022/12/19 04:37:39;;;;;;;77.97;20.90;;;-1.10;99.90;;;;;;4995972;28;20511;-64
2022/12/19 04:40:07;;;;;;;74.60;22.40;;;-1.10;99.90;;;;;;4991196;28;20037;-64
2022/12/19 04:42:32;;;;;;;66.88;20.90;;;-1.00;99.90;;;;;;5011471;28;20720;-63
2022/12/19 04:44:58;;;;;;;76.28;23.73;;;-1.00;99.90;;;;;;5010478;28;20030;-65
2022/12/19 04:47:24;;;;;;;77.13;22.42;;;-1.00;99.90;;;;;;5011704;28;20434;-64
2022/12/19 04:49:49;;;;;;;64.78;20.60;;;-0.90;99.90;;;;;;5010622;28;20081;-64
2022/12/19 04:52:15;;;;;;;69.50;20.02;;;-0.90;99.90;;;;;;5011707;28;20124;-64
2022/12/19 04:54:41;;;;;;;69.35;20.60;;;-0.90;99.90;;;;;;5009631;28;20046;-64
2022/12/19 04:57:07;;;;;;;73.93;22.45;;;-0.90;99.90;;;;;;5011191;28;20045;-64
2022/12/19 04:59:32;;;;;;;74.00;23.23;;;-0.90;99.90;;;;;;4997942;28;20076;-66
2022/12/19 05:01:58;;;;;;;63.92;20.15;;;-0.80;99.90;;;;;;5001609;28;20137;-66
2022/12/19 05:04:24;;;;;;;70.05;19.60;;;-0.80;99.90;;;;;;5009335;28;20391;-65
2022/12/19 05:06:49;;;;;;;67.43;21.33;;;-0.80;99.90;;;;;;5009303;28;20528;-66
2022/12/19 05:09:15;;;;;;;65.82;19.40;;;-0.80;99.90;;;;;;5004178;28;20030;-68
2022/12/19 05:11:41;;;;;;;67.13;20.25;;;-0.70;99.90;;;;;;5000616;28;20034;-69
2022/12/19 05:14:07;;;;;;;65.93;20.05;;;-0.70;99.90;;;;;;5010841;28;20053;-66
2022/12/19 05:16:33;;;;;;;58.50;20.05;;;-0.70;99.90;;;;;;5000016;28;20416;-68
2022/12/19 05:18:59;;;;;;;69.15;20.50;;;-0.70;99.90;;;;;;4991125;28;20061;-67
2022/12/19 05:21:25;;;;;;;70.95;21.77;;;-0.70;99.90;;;;;;5007206;28;20037;-68
2022/12/19 05:23:50;;;;;;;65.97;19.70;;;-0.70;99.90;;;;;;5006348;28;20499;-68
2022/12/19 05:26:16;;;;;;;78.80;21.98;;;-0.70;99.90;;;;;;4994178;28;20152;-66
2022/12/19 05:28:42;;;;;;;70.47;21.67;;;-0.70;99.90;;;;;;5010106;28;20034;-67
2022/12/19 05:31:10;;;;;;;67.30;22.02;;;-0.80;99.90;;;;;;5002530;28;20099;-66
2022/12/19 05:33:37;;;;;;;76.13;23.30;;;-0.80;99.90;;;;;;5010861;28;20037;-67
2022/12/19 05:36:04;;;;;;;74.00;22.35;;;-0.70;99.90;;;;;;5000260;28;20038;-66
2022/12/19 05:38:29;;;;;;;69.95;22.30;;;-0.70;99.90;;;;;;5010293;28;20048;-68
2022/12/19 05:40:55;;;;;;;68.13;22.17;;;-0.60;99.90;;;;;;5010160;28;20022;-69
2022/12/19 05:43:21;;;;;;;74.32;23.42;;;-0.60;99.90;;;;;;5005885;28;20052;-67
2022/12/19 05:45:47;;;;;;;76.85;23.70;;;-0.50;99.90;;;;;;5010540;28;20033;-68
2022/12/19 05:48:12;;;;;;;75.95;23.00;;;-0.50;99.90;;;;;;5003689;28;20656;-67
2022/12/19 05:50:38;;;;;;;68.57;23.15;;;-0.40;99.90;;;;;;4994981;28;20030;-69
2022/12/19 05:53:04;;;;;;;71.10;21.02;;;-0.40;99.90;;;;;;5003449;28;20722;-68
2022/12/19 05:55:30;;;;;;;72.38;22.27;;;-0.40;99.90;;;;;;5004334;28;20026;-68
2022/12/19 05:57:56;;;;;;;71.05;22.17;;;-0.40;99.90;;;;;;5012548;28;20034;-69
2022/12/19 06:00:21;;;;;;;78.40;23.98;;;-0.30;99.90;;;;;;5010591;28;20157;-68
2022/12/19 06:02:47;;;;;;;75.22;21.90;;;-0.30;99.90;;;;;;5022201;28;20061;-68
2022/12/19 06:05:13;;;;;;;73.15;22.25;;;-0.30;99.90;;;;;;5008156;28;20064;-67
2022/12/19 06:07:39;;;;;;;80.28;22.20;;;-0.30;99.90;;;;;;5008883;28;20112;-67
2022/12/19 06:10:05;;;;;;;73.50;23.20;;;-0.30;99.90;;;;;;4995395;28;20479;-68
2022/12/19 06:12:31;;;;;;;80.95;25.55;;;-0.30;99.90;;;;;;5010655;28;20112;-66
2022/12/19 06:14:57;;;;;;;74.72;21.85;;;-0.30;99.90;;;;;;5010112;28;20108;-68
2022/12/19 06:17:22;;;;;;;72.63;22.70;;;-0.20;99.90;;;;;;5000713;28;20042;-66
2022/12/19 06:19:48;;;;;;;83.25;25.05;;;-0.20;99.90;;;;;;5010304;28;20049;-66
2022/12/19 06:22:14;;;;;;;80.03;23.85;;;-0.10;99.90;;;;;;5006325;28;20201;-70
2022/12/19 06:24:39;;;;;;;87.15;24.35;;;-0.20;99.90;;;;;;4989018;28;20034;-68
2022/12/19 06:27:05;;;;;;;82.97;22.08;;;-0.20;99.90;;;;;;5006425;28;20091;-68
2022/12/19 06:29:30;;;;;;;82.72;24.00;;;-0.20;99.90;;;;;;5002451;28;20117;-69
2022/12/19 06:31:56;;;;;;;82.78;24.25;;;-0.20;99.90;;;;;;5023014;28;20033;-68
2022/12/19 06:34:22;;;;;;;74.78;22.38;;;-0.20;99.90;;;;;;5018792;28;20034;-67
2022/12/19 06:36:47;;;;;;;76.07;22.05;;;-0.20;99.90;;;;;;5012227;28;20049;-67
2022/12/19 06:39:14;;;;;;;85.97;24.83;;;-0.20;99.90;;;;;;5006227;28;20064;-66
2022/12/19 06:44:25;;;;;;;87.40;26.23;;;-0.20;99.90;;;;;;4993194;28;20097;-67
2022/12/19 06:46:53;;;;;;;79.68;25.02;;;-0.20;99.90;;;;;;5007181;28;20041;-68
2022/12/19 06:49:19;;;;;;;74.85;24.15;;;-0.20;99.90;;;;;;5004597;28;20038;-68
2022/12/19 06:51:45;;;;;;;73.60;24.42;;;-0.10;99.90;;;;;;4998696;28;20026;-68
2022/12/19 06:54:11;;;;;;;78.20;23.83;;;-0.10;99.90;;;;;;5005519;28;20148;-69
2022/12/19 06:56:39;;;;;;;76.60;24.27;;;0.00;99.90;;;;;;5007174;28;20117;-67
2022/12/19 06:59:06;;;;;;;81.57;24.20;;;0.10;99.90;;;;;;5000732;28;20026;-70
2022/12/19 07:02:01;;;;;;;78.22;24.40;;;0.10;99.90;;;;;;5005206;28;20026;-66
2022/12/19 07:04:51;;;;;;;78.55;23.88;;;0.20;99.90;;;;;;5006007;28;20092;-69
2022/12/19 07:07:17;;;;;;;80.63;25.65;;;0.30;99.90;;;;;;5006476;28;20053;-65
2022/12/19 07:09:43;;;;;;;73.30;22.23;;;0.30;99.90;;;;;;5011977;28;20060;-65
2022/12/19 07:12:09;;;;;;;86.85;25.25;;;0.40;99.90;;;;;;5012911;28;20103;-68
2022/12/19 07:14:35;;;;;;;76.78;23.02;;;0.40;99.90;;;;;;4993324;28;20413;-66
2022/12/19 07:17:02;;;;;;;81.65;24.13;;;0.40;99.90;;;;;;5004221;28;20065;-65
2022/12/19 07:19:30;;;;;;;74.57;24.75;;;0.30;99.90;;;;;;5007895;28;20034;-66
2022/12/19 07:21:56;;;;;;;87.38;24.33;;;0.30;99.90;;;;;;4994107;28;20066;-69
2022/12/19 07:24:22;;;;;;;75.75;23.33;;;0.30;99.90;;;;;;5011439;28;20068;-67
2022/12/19 07:26:47;;;;;;;68.82;23.13;;;0.20;99.90;;;;;;5003686;28;20499;-67
2022/12/19 07:29:13;;;;;;;80.70;22.63;;;0.20;99.90;;;;;;5007471;28;20753;-65
2022/12/19 07:31:39;;;;;;;87.18;24.63;;;0.20;99.90;;;;;;5004592;28;20045;-66
2022/12/19 07:34:04;;;;;;;82.55;24.77;;;0.10;99.90;;;;;;4995931;28;20031;-66
2022/12/19 07:36:30;;;;;;;73.80;23.23;;;0.20;99.90;;;;;;5005962;28;20034;-67
2022/12/19 07:38:56;;;;;;;76.40;24.25;;;0.10;99.90;;;;;;5004639;28;20033;-68
2022/12/19 07:41:21;;;;;;;75.22;24.70;;;0.20;99.90;;;;;;5010726;28;20418;-66
2022/12/19 07:43:47;;;;;;;74.68;24.73;;;0.20;99.90;;;;;;5005723;28;20029;-64
2022/12/19 07:46:13;;;;;;;87.90;24.55;;;0.20;99.90;;;;;;5005347;28;20398;-64
2022/12/19 07:48:39;;;;;;;83.78;25.60;;;0.20;99.90;;;;;;5000515;28;20073;-63
2022/12/19 07:51:04;;;;;;;80.68;24.40;;;0.20;99.90;;;;;;4988885;28;20031;-65
2022/12/19 07:53:31;;;;;;;84.70;26.08;;;0.30;99.90;;;;;;5002098;28;20059;-65
2022/12/19 07:55:57;;;;;;;81.30;25.65;;;0.30;99.90;;;;;;5005851;28;20045;-67
2022/12/19 07:58:22;;;;;;;88.60;25.65;;;0.40;99.90;;;;;;5005406;28;20029;-64
2022/12/19 08:00:56;;;;;;;72.68;23.20;;;0.50;99.90;;;;;;5004835;28;20104;-64
2022/12/19 08:03:22;;;;;;;74.47;22.70;;;0.60;99.90;;;;;;5000076;28;20062;-66
2022/12/19 08:05:48;;;;;;;66.85;22.13;;;0.70;99.90;;;;;;5027105;28;20160;-66
2022/12/19 08:08:14;;;;;;;78.20;22.88;;;0.80;99.90;;;;;;5001333;28;20168;-65
2022/12/19 08:10:40;;;;;;;70.93;21.08;;;0.90;99.90;;;;;;5009155;28;20064;-65
2022/12/19 08:13:06;;;;;;;68.30;22.60;;;1.00;99.90;;;;;;5000331;28;20041;-66
2022/12/19 08:15:31;;;;;;;75.13;23.40;;;1.00;99.90;;;;;;4990112;28;20056;-65
2022/12/19 08:17:57;;;;;;;77.43;24.48;;;1.10;99.90;;;;;;4995142;28;20545;-68
2022/12/19 08:20:23;;;;;;;74.32;23.83;;;1.10;99.90;;;;;;4997553;28;20441;-65
2022/12/19 08:22:49;;;;;;;87.35;25.48;;;1.10;99.90;;;;;;5003603;28;20077;-65
2022/12/19 08:25:14;;;;;;;75.85;25.27;;;1.10;99.90;;;;;;4986560;28;20060;-64
2022/12/19 08:27:41;;;;;;;71.40;23.23;;;1.10;99.90;;;;;;5011220;28;20398;-66
2022/12/19 08:30:07;;;;;;;74.57;23.92;;;1.00;99.90;;;;;;5026319;28;20474;-67
2022/12/19 08:32:33;;;;;;;72.38;24.13;;;1.00;99.90;;;;;;5006841;28;20034;-66
2022/12/19 08:34:59;;;;;;;77.43;25.08;;;1.10;99.90;;;;;;5008153;28;20379;-67
2022/12/19 08:37:24;;;;;;;71.88;24.05;;;1.10;99.90;;;;;;5006589;28;20467;-66
2022/12/19 08:39:50;;;;;;;74.75;23.00;;;1.10;99.90;;;;;;5003729;28;20022;-65
2022/12/19 08:42:16;;;;;;;81.32;24.45;;;1.10;99.90;;;;;;4993708;28;20088;-63
2022/12/19 08:44:41;;;;;;;72.57;23.77;;;1.20;99.90;;;;;;5006486;28;20035;-64
2022/12/19 08:47:08;;;;;;;67.38;21.92;;;1.30;99.90;;;;;;4993638;28;20101;-66
2022/12/19 08:49:34;;;;;;;69.78;22.08;;;1.30;99.90;;;;;;5006963;28;20034;-67
2022/12/19 08:51:59;;;;;;;70.50;22.35;;;1.40;99.90;;;;;;5005530;28;20030;-66
2022/12/19 08:54:26;;;;;;;65.15;21.27;;;1.50;99.90;;;;;;5007287;28;20041;-66
2022/12/19 08:56:51;;;;;;;71.32;21.90;;;1.50;99.90;;;;;;5006149;28;20414;-66
2022/12/19 08:59:17;;;;;;;70.78;22.23;;;1.60;99.90;;;;;;5006352;28;20034;-67
2022/12/19 09:01:43;;;;;;;75.82;23.33;;;1.70;99.90;;;;;;5003061;28;20033;-66
2022/12/19 09:04:08;;;;;;;77.07;23.15;;;1.80;99.90;;;;;;4991141;28;20042;-65
2022/12/19 09:06:34;;;;;;;65.32;21.48;;;1.80;99.90;;;;;;5026587;28;20034;-66
2022/12/19 09:09:00;;;;;;;72.82;23.13;;;1.90;99.90;;;;;;4992078;28;20671;-66
2022/12/19 09:11:25;;;;;;;75.47;24.25;;;1.90;99.90;;;;;;4994620;28;20072;-67
2022/12/19 09:13:55;;;;;;;74.90;24.77;;;1.90;99.90;;;;;;5000966;28;20066;-65
2022/12/19 09:16:22;;;;;;;74.63;23.38;;;1.90;99.90;;;;;;4996661;28;20092;-66
2022/12/19 09:18:50;;;;;;;75.20;24.13;;;2.00;99.90;;;;;;5011395;28;20537;-67
2022/12/19 09:21:18;;;;;;;73.05;23.80;;;2.10;99.90;;;;;;5008114;28;20402;-65
2022/12/19 09:23:52;;;;;;;66.50;21.60;;;2.20;99.90;;;;;;5011046;28;20076;-66
2022/12/19 09:26:20;;;;;;;76.63;24.63;;;2.30;99.90;;;;;;5008997;28;20041;-66
2022/12/19 09:28:46;;;;;;;76.28;25.55;;;2.20;99.90;;;;;;5006845;28;20033;-66
2022/12/19 09:31:15;;;;;;;80.95;26.20;;;2.20;99.90;;;;;;5021387;28;20157;-66
2022/12/19 09:33:41;;;;;;;84.72;28.58;;;2.20;99.90;;;;;;5010646;28;20427;-67
2022/12/19 09:36:10;;;;;;;86.82;29.48;;;2.20;99.90;;;;;;5006974;28;20081;-67
2022/12/19 09:38:36;;;;;;;88.90;28.10;;;2.20;99.90;;;;;;4991001;28;20027;-66
2022/12/19 09:41:08;;;;;;;89.78;29.77;;;2.20;99.90;;;;;;5000864;28;20447;-66
2022/12/19 09:43:54;;;;;;;97.18;30.73;;;2.20;99.90;;;;;;4997128;28;20034;-67
2022/12/19 09:46:39;;;;;;;83.40;28.50;;;2.20;99.90;;;;;;5009105;28;20038;-65
2022/12/19 09:49:12;;;;;;;76.40;26.50;;;2.20;99.90;;;;;;5023913;28;20042;-67
2022/12/19 09:51:47;;;;;;;82.20;27.95;;;2.30;99.90;;;;;;4997231;28;20037;-65
2022/12/19 09:54:22;;;;;;;82.60;26.83;;;2.30;99.90;;;;;;4990471;28;20061;-66
2022/12/19 09:56:56;;;;;;;81.00;26.73;;;2.40;99.90;;;;;;4991588;28;20101;-66
2022/12/19 09:59:34;;;;;;;73.35;25.73;;;2.50;99.90;;;;;;5008401;28;20088;-66
2022/12/19 10:02:18;;;;;;;81.47;26.38;;;2.60;99.90;;;;;;5008348;28;20026;-66
2022/12/19 10:04:53;;;;;;;69.47;22.90;;;2.70;99.90;;;;;;5005762;28;20088;-65
2022/12/19 10:07:21;;;;;;;68.43;23.23;;;2.80;99.90;;;;;;5004040;28;20471;-66
2022/12/19 10:09:47;;;;;;;71.03;24.70;;;2.80;99.90;;;;;;5004229;28;20034;-66
2022/12/19 10:12:22;;;;;;;84.35;26.48;;;2.90;99.90;;;;;;5029314;28;20037;-66
2022/12/19 10:15:08;;;;;;;79.78;26.55;;;2.90;99.90;;;;;;5021309;28;20105;-65
2022/12/19 10:17:55;;;;;;;86.50;28.35;;;2.80;99.90;;;;;;5004235;28;20053;-66
2022/12/19 10:20:28;;;;;;;79.35;28.15;;;2.90;99.90;;;;;;5002964;28;20099;-67
2022/12/19 10:23:26;;;;;;;77.82;25.63;;;2.90;99.90;;;;;;5020304;28;20107;-67
2022/12/19 10:26:09;;;;;;;70.10;23.63;;;2.90;99.90;;;;;;4990416;28;20477;-65
2022/12/19 10:29:09;;;;;;;65.05;21.85;;;3.00;99.90;;;;;;4998886;28;20022;-67
2022/12/19 10:31:43;;;;;;;64.45;20.77;;;3.10;99.90;;;;;;4975662;28;20050;-67
2022/12/19 10:34:23;;;;;;;69.68;21.60;;;3.30;99.90;;;;;;5008460;28;20113;-67
2022/12/19 10:36:53;;;;;;;65.65;22.80;;;3.50;99.90;;;;;;5013374;28;20053;-67
2022/12/19 10:39:30;;;;;;;;;;;3.60;99.90;;;;;;5001038;28;20125;-67
2022/12/19 10:42:17;;;;;;;59.90;20.83;;;3.60;99.90;;;;;;5003200;28;20290;-66
2022/12/19 10:44:46;;;;;;;67.90;21.88;;;3.70;99.90;;;;;;5008043;28;20040;-66
2022/12/19 10:47:16;;;;;;;66.40;23.23;;;3.80;99.90;;;;;;5008587;28;20125;-68
2022/12/19 10:49:42;;;;;;;68.60;23.60;;;3.90;99.90;;;;;;5009574;28;20046;-66
2022/12/19 10:52:10;;;;;;;66.32;23.73;;;4.00;99.90;;;;;;5000700;28;20027;-66
2022/12/19 10:54:36;;;;;;;80.78;27.85;;;4.00;99.90;;;;;;4997140;28;20039;-66
2022/12/19 10:57:21;;;;;;;79.30;28.25;;;3.90;99.90;;;;;;4990158;28;20042;-65
2022/12/19 11:00:15;;;;;;;82.10;27.70;;;3.80;99.90;;;;;;5009559;28;20037;-64
2022/12/19 11:02:44;;;;;;;77.13;26.75;;;3.80;99.90;;;;;;5000109;28;20038;-66
2022/12/19 11:05:45;;;;;;;67.45;22.55;;;3.80;99.90;;;;;;5008623;28;20095;-67
2022/12/19 11:08:14;;;;;;;64.38;22.52;;;3.80;99.90;;;;;;4996445;28;20121;-65
2022/12/19 11:10:48;;;;;;;62.47;21.38;;;3.80;99.90;;;;;;5000277;28;20034;-66
2022/12/19 11:13:27;;;;;;;71.95;24.63;;;3.80;99.90;;;;;;4991233;28;20069;-65
2022/12/19 11:15:55;;;;;;;70.07;24.67;;;3.80;99.90;;;;;;5001251;28;20032;-66
2022/12/19 11:18:22;;;;;;;68.45;23.73;;;3.80;99.90;;;;;;5003958;28;20574;-65
2022/12/19 11:21:05;;;;;;;67.60;23.67;;;3.90;99.90;;;;;;5005071;28;20034;-66
2022/12/19 11:23:33;;;;;;;65.72;22.00;;;3.80;99.90;;;;;;5003976;28;20072;-67
2022/12/19 11:26:02;;;;;;;64.20;21.63;;;3.90;99.90;;;;;;4995745;28;20029;-66
2022/12/19 11:28:35;;;;;;;62.58;22.08;;;3.90;99.90;;;;;;4990335;28;20022;-65
2022/12/19 11:31:21;;;;;;;67.32;21.08;;;4.00;99.90;;;;;;5026949;28;20069;-67
2022/12/19 11:33:53;;;;;;;68.07;22.10;;;4.00;99.90;;;;;;5006563;28;20084;-66
2022/12/19 11:37:14;;;;;;;65.68;21.80;;;4.10;99.90;;;;;;5006731;28;20442;-66
2022/12/19 11:39:58;;;;;;;64.18;21.85;;;4.10;99.90;;;;;;4957674;28;20350;-66
2022/12/19 11:42:55;;;;;;;70.70;22.58;;;4.20;99.90;;;;;;4956676;28;20034;-67
2022/12/19 11:45:56;;;;;;;64.25;23.35;;;4.20;99.90;;;;;;4997782;28;20054;-66
2022/12/19 11:48:45;;;;;;;67.60;23.15;;;4.30;99.90;;;;;;4983233;28;20042;-66
2022/12/19 11:51:16;;;;;;;65.47;23.13;;;4.50;99.90;;;;;;4988623;28;20137;-67
2022/12/19 11:54:06;;;;;;;66.63;22.80;;;4.70;99.90;;;;;;5002198;28;20033;-66
2022/12/19 11:56:32;;;;;;;76.43;24.55;;;4.80;99.90;;;;;;4988272;28;20038;-65
2022/12/19 11:59:16;;;;;;;74.18;26.60;;;4.80;99.90;;;;;;4998138;28;20494;-65
2022/12/19 12:02:46;;;;;;;74.45;25.25;;;4.80;99.90;;;;;;4996208;28;20423;-65
2022/12/19 12:05:44;;;;;;;70.03;23.77;;;4.90;99.90;;;;;;4978539;28;20534;-63
2022/12/19 12:08:34;;;;;;;64.28;23.83;;;4.80;99.90;;;;;;5004341;28;20030;-66
2022/12/19 12:11:04;;;;;;;66.35;23.17;;;4.90;99.90;;;;;;5009916;28;20442;-66
2022/12/19 12:13:37;;;;;;;70.82;24.80;;;4.90;99.90;;;;;;5008047;28;20073;-65
2022/12/19 12:16:11;;;;;;;72.10;24.92;;;4.90;99.90;;;;;;5008895;28;20384;-65
2022/12/19 12:18:54;;;;;;;92.18;29.83;;;4.90;99.90;;;;;;5004351;28;20030;-66
2022/12/19 12:22:03;;;;;;;112.78;33.90;;;4.90;99.90;;;;;;5002729;28;20105;-65
2022/12/19 12:24:35;;;;;;;90.50;31.08;;;4.80;99.90;;;;;;5000327;28;20082;-65
2022/12/19 12:27:38;;;;;;;72.43;25.50;;;4.70;99.90;;;;;;5004368;28;20022;-65
2022/12/19 12:30:10;;;;;;;69.78;22.65;;;4.60;99.90;;;;;;4988536;28;20038;-66
2022/12/19 12:33:07;;;;;;;70.30;23.42;;;4.60;99.90;;;;;;5008087;28;20101;-65
2022/12/19 12:35:38;;;;;;;57.20;22.38;;;4.60;99.90;;;;;;5001830;28;20025;-64
2022/12/19 12:38:27;;;;;;;65.35;23.20;;;4.60;99.90;;;;;;5011753;28;20121;-66
2022/12/19 12:44:19;;;;;;;68.80;25.33;;;4.50;99.90;;;;;;5009783;28;20053;-66
2022/12/19 12:46:57;;;;;;;70.22;24.63;;;4.40;99.90;;;;;;4997046;28;20430;-65
2022/12/19 12:49:37;;;;;;;64.53;23.45;;;4.40;99.90;;;;;;5010864;28;20098;-65
2022/12/19 12:52:06;;;;;;;68.38;24.00;;;4.30;99.90;;;;;;5010465;28;20037;-66
2022/12/19 12:54:36;;;;;;;60.42;21.50;;;4.40;99.90;;;;;;4994649;28;20141;-65
2022/12/19 12:57:03;;;;;;;58.90;20.80;;;4.50;99.90;;;;;;4993637;28;20052;-65
2022/12/19 12:59:29;;;;;;;61.60;20.75;;;4.60;99.90;;;;;;5024073;28;20033;-67
2022/12/19 13:02:20;;;;;;;63.40;22.27;;;4.70;99.90;;;;;;5009923;28;20029;-68